createdAt,value
2017-10-31T00:00:27.967Z,22.26
2017-10-31T00:01:37.000Z,22.26
2017-10-31T00:02:46.359Z,22.26
2017-10-31T00:03:55.054Z,22.25
2017-10-31T00:05:04.411Z,22.25
2017-10-31T00:06:13.105Z,22.25
2017-10-31T00:07:22.139Z,22.18
2017-10-31T00:08:31.856Z,22.25
2017-10-31T00:09:40.872Z,22.15
2017-10-31T00:10:49.908Z,22.2
2017-10-31T00:11:59.601Z,22.25
2017-10-31T00:13:08.971Z,22.23
2017-10-31T00:14:18.332Z,22.18
2017-10-31T00:15:27.363Z,22.17
2017-10-31T00:16:37.392Z,22.2
2017-10-31T00:17:46.421Z,22.2
2017-10-31T00:18:55.450Z,22.2
2017-10-31T00:20:04.813Z,22.18
2017-10-31T00:21:14.178Z,22.17
2017-10-31T00:22:23.539Z,22.14
2017-10-31T00:23:32.575Z,22.22
2017-10-31T00:24:41.604Z,22.1
2017-10-31T00:25:50.303Z,22.22
2017-10-31T00:26:59.671Z,22.15
2017-10-31T00:28:08.704Z,22.2
2017-10-31T00:29:17.733Z,22.23
2017-10-31T00:30:26.437Z,22.14
2017-10-31T00:31:35.470Z,22.15
2017-10-31T00:32:44.165Z,22.2
2017-10-31T00:33:52.860Z,22.13
2017-10-31T00:35:02.559Z,22.15
2017-10-31T00:36:11.595Z,22.1
2017-10-31T00:37:20.628Z,22.1
2017-10-31T00:38:29.326Z,22.11
2017-10-31T00:39:38.018Z,22.14
2017-10-31T00:40:47.381Z,22.22
2017-10-31T00:41:56.414Z,22.1
2017-10-31T00:43:05.115Z,22.08
2017-10-31T00:44:14.144Z,22.18
2017-10-31T00:45:23.510Z,22.14
2017-10-31T00:46:32.542Z,22.11
2017-10-31T00:47:41.590Z,22.11
2017-10-31T00:48:50.960Z,22.11
2017-10-31T00:49:59.997Z,22.11
2017-10-31T00:51:09.031Z,22.06
2017-10-31T00:52:18.067Z,22.04
2017-10-31T00:53:27.100Z,22.04
2017-10-31T00:54:35.798Z,22.06
2017-10-31T00:55:44.494Z,22.08
2017-10-31T00:56:53.532Z,22.06
2017-10-31T00:58:02.558Z,22.02
2017-10-31T00:59:12.259Z,22.06
2017-10-31T01:00:21.624Z,22.06
2017-10-31T01:01:30.652Z,21.96
2017-10-31T01:02:39.686Z,22.1
2017-10-31T01:03:49.048Z,22.1
2017-10-31T01:04:58.075Z,22.06
2017-10-31T01:06:07.108Z,22.08
2017-10-31T01:07:16.471Z,21.98
2017-10-31T01:08:25.169Z,21.95
2017-10-31T01:09:34.527Z,22.04
2017-10-31T01:10:43.555Z,21.98
2017-10-31T01:11:52.581Z,22
2017-10-31T01:13:01.615Z,21.95
2017-10-31T01:14:10.641Z,21.96
2017-10-31T01:15:20.020Z,21.95
2017-10-31T01:16:29.048Z,21.99
2017-10-31T01:17:38.088Z,22
2017-10-31T01:18:47.117Z,21.98
2017-10-31T01:19:56.489Z,22
2017-10-31T01:21:05.848Z,21.98
2017-10-31T01:22:15.228Z,21.98
2017-10-31T01:23:23.923Z,22.02
2017-10-31T01:24:32.951Z,21.98
2017-10-31T01:25:41.649Z,21.96
2017-10-31T01:26:51.017Z,21.96
2017-10-31T01:28:00.716Z,21.93
2017-10-31T01:29:09.748Z,21.95
2017-10-31T01:30:18.776Z,21.89
2017-10-31T01:31:28.136Z,21.92
2017-10-31T01:32:37.166Z,21.95
2017-10-31T01:33:46.199Z,21.96
2017-10-31T01:34:55.560Z,21.95
2017-10-31T01:36:04.593Z,21.95
2017-10-31T01:37:13.957Z,21.89
2017-10-31T01:38:24.000Z,21.92
2017-10-31T01:39:33.028Z,21.92
2017-10-31T01:40:42.060Z,21.92
2017-10-31T01:41:51.426Z,21.91
2017-10-31T01:43:00.457Z,21.91
2017-10-31T01:44:09.174Z,21.95
2017-10-31T01:45:18.516Z,21.92
2017-10-31T01:46:28.216Z,21.85
2017-10-31T01:47:37.578Z,21.88
2017-10-31T01:48:46.274Z,21.88
2017-10-31T01:49:54.974Z,21.88
2017-10-31T01:51:04.005Z,21.88
2017-10-31T01:52:13.380Z,21.85
2017-10-31T01:53:23.081Z,21.91
2017-10-31T01:54:31.792Z,21.77
2017-10-31T01:55:40.807Z,21.92
2017-10-31T01:56:49.838Z,21.91
2017-10-31T01:57:59.534Z,21.82
2017-10-31T01:59:08.895Z,21.95
2017-10-31T02:00:17.924Z,21.79
2017-10-31T02:01:27.283Z,21.92
2017-10-31T02:02:36.645Z,21.82
2017-10-31T02:03:45.341Z,21.8
2017-10-31T02:04:54.041Z,21.83
2017-10-31T02:06:03.399Z,21.75
2017-10-31T02:07:13.095Z,21.79
2017-10-31T02:08:21.793Z,21.79
2017-10-31T02:09:30.493Z,21.8
2017-10-31T02:10:39.192Z,21.82
2017-10-31T02:11:48.565Z,21.76
2017-10-31T02:12:57.262Z,21.8
2017-10-31T02:14:06.622Z,21.82
2017-10-31T02:15:15.666Z,21.72
2017-10-31T02:16:24.696Z,21.79
2017-10-31T02:17:34.722Z,21.75
2017-10-31T02:18:44.428Z,21.83
2017-10-31T02:19:54.120Z,21.79
2017-10-31T02:21:03.146Z,21.72
2017-10-31T02:22:12.179Z,21.79
2017-10-31T02:23:21.205Z,21.79
2017-10-31T02:24:30.245Z,21.73
2017-10-31T02:25:38.941Z,21.75
2017-10-31T02:26:47.969Z,21.73
2017-10-31T02:27:56.668Z,21.73
2017-10-31T02:29:05.695Z,21.7
2017-10-31T02:30:15.386Z,21.8
2017-10-31T02:31:24.749Z,21.7
2017-10-31T02:32:33.447Z,21.73
2017-10-31T02:33:42.487Z,21.69
2017-10-31T02:34:51.516Z,21.67
2017-10-31T02:36:00.554Z,21.73
2017-10-31T02:37:09.579Z,21.73
2017-10-31T02:38:18.278Z,21.69
2017-10-31T02:39:26.975Z,21.75
2017-10-31T02:40:36.006Z,21.7
2017-10-31T02:41:45.386Z,21.72
2017-10-31T02:42:55.078Z,21.69
2017-10-31T02:44:04.773Z,21.72
2017-10-31T02:45:13.802Z,21.72
2017-10-31T02:46:22.830Z,21.73
2017-10-31T02:47:32.534Z,21.72
2017-10-31T02:48:41.897Z,21.77
2017-10-31T02:49:50.592Z,21.73
2017-10-31T02:50:59.957Z,21.73
2017-10-31T02:52:09.655Z,21.69
2017-10-31T02:53:19.016Z,21.73
2017-10-31T02:54:29.081Z,21.73
2017-10-31T02:55:38.114Z,21.64
2017-10-31T02:56:47.488Z,21.69
2017-10-31T02:57:56.519Z,21.69
2017-10-31T02:59:05.882Z,21.58
2017-10-31T03:00:15.247Z,21.7
2017-10-31T03:01:24.608Z,21.69
2017-10-31T03:02:33.645Z,21.6
2017-10-31T03:03:43.012Z,21.58
2017-10-31T03:04:52.043Z,21.58
2017-10-31T03:06:01.076Z,21.55
2017-10-31T03:07:10.441Z,21.6
2017-10-31T03:08:20.154Z,21.64
2017-10-31T03:09:28.852Z,21.62
2017-10-31T03:10:38.549Z,21.61
2017-10-31T03:11:47.578Z,21.61
2017-10-31T03:12:56.632Z,21.6
2017-10-31T03:14:05.991Z,21.6
2017-10-31T03:15:15.022Z,21.58
2017-10-31T03:16:24.051Z,21.62
2017-10-31T03:17:33.746Z,21.54
2017-10-31T03:18:43.102Z,21.58
2017-10-31T03:19:51.809Z,21.61
2017-10-31T03:21:00.830Z,21.61
2017-10-31T03:22:09.522Z,21.64
2017-10-31T03:23:18.886Z,21.54
2017-10-31T03:24:27.585Z,21.57
2017-10-31T03:25:36.614Z,21.51
2017-10-31T03:26:45.972Z,21.62
2017-10-31T03:27:55.002Z,21.6
2017-10-31T03:29:03.701Z,21.54
2017-10-31T03:30:12.398Z,21.52
2017-10-31T03:31:21.766Z,21.52
2017-10-31T03:32:30.796Z,21.54
2017-10-31T03:33:39.822Z,21.5
2017-10-31T03:34:48.522Z,21.5
2017-10-31T03:35:57.550Z,21.57
2017-10-31T03:37:06.241Z,21.54
2017-10-31T03:38:15.264Z,21.5
2017-10-31T03:39:23.969Z,21.55
2017-10-31T03:40:33.002Z,21.58
2017-10-31T03:41:42.372Z,21.54
2017-10-31T03:42:52.426Z,21.43
2017-10-31T03:44:01.444Z,21.54
2017-10-31T03:45:10.805Z,21.57
2017-10-31T03:46:20.169Z,21.48
2017-10-31T03:47:29.542Z,21.48
2017-10-31T03:48:38.923Z,21.43
2017-10-31T03:49:47.955Z,21.5
2017-10-31T03:50:57.319Z,21.51
2017-10-31T03:52:06.688Z,21.43
2017-10-31T03:53:16.056Z,21.45
2017-10-31T03:54:25.087Z,21.5
2017-10-31T03:55:34.446Z,21.46
2017-10-31T03:56:43.474Z,21.4
2017-10-31T03:57:52.171Z,21.48
2017-10-31T03:59:01.198Z,21.45
2017-10-31T04:00:10.560Z,21.46
2017-10-31T04:01:19.927Z,21.46
2017-10-31T04:02:28.958Z,21.43
2017-10-31T04:03:38.657Z,21.42
2017-10-31T04:04:48.015Z,21.4
2017-10-31T04:05:56.713Z,21.4
2017-10-31T04:07:05.742Z,21.4
2017-10-31T04:08:14.775Z,21.4
2017-10-31T04:09:24.141Z,21.39
2017-10-31T04:10:33.505Z,21.39
2017-10-31T04:11:42.537Z,21.36
2017-10-31T04:12:51.236Z,21.3
2017-10-31T04:13:59.930Z,21.42
2017-10-31T04:15:08.956Z,21.37
2017-10-31T04:16:17.984Z,21.36
2017-10-31T04:17:27.010Z,21.43
2017-10-31T04:18:36.394Z,21.37
2017-10-31T04:19:46.084Z,21.36
2017-10-31T04:20:55.448Z,21.37
2017-10-31T04:22:04.479Z,21.37
2017-10-31T04:23:13.841Z,21.33
2017-10-31T04:24:22.541Z,21.37
2017-10-31T04:25:31.236Z,21.37
2017-10-31T04:26:40.596Z,21.29
2017-10-31T04:27:49.958Z,21.3
2017-10-31T04:28:59.661Z,21.37
2017-10-31T04:30:08.689Z,21.33
2017-10-31T04:31:18.382Z,21.32
2017-10-31T04:32:27.409Z,21.33
2017-10-31T04:33:36.107Z,21.39
2017-10-31T04:34:44.801Z,21.3
2017-10-31T04:35:54.526Z,21.32
2017-10-31T04:37:03.549Z,21.37
2017-10-31T04:38:12.249Z,21.27
2017-10-31T04:39:21.280Z,21.24
2017-10-31T04:40:30.637Z,21.27
2017-10-31T04:41:39.668Z,21.25
2017-10-31T04:42:48.692Z,21.27
2017-10-31T04:43:57.725Z,21.22
2017-10-31T04:45:07.093Z,21.21
2017-10-31T04:46:16.124Z,21.24
2017-10-31T04:47:25.825Z,21.29
2017-10-31T04:48:35.514Z,21.3
2017-10-31T04:49:44.880Z,21.27
2017-10-31T04:50:54.248Z,21.27
2017-10-31T04:52:03.943Z,21.2
2017-10-31T04:53:12.980Z,21.21
2017-10-31T04:54:22.339Z,21.25
2017-10-31T04:55:31.704Z,21.24
2017-10-31T04:56:41.065Z,21.24
2017-10-31T04:57:49.764Z,21.35
2017-10-31T04:58:59.787Z,21.24
2017-10-31T05:00:08.819Z,21.3
2017-10-31T05:01:18.509Z,21.25
2017-10-31T05:02:27.873Z,21.24
2017-10-31T05:03:36.902Z,21.24
2017-10-31T05:04:45.599Z,21.22
2017-10-31T05:05:54.624Z,21.22
2017-10-31T05:07:03.985Z,21.24
2017-10-31T05:08:13.015Z,21.24
2017-10-31T05:09:22.044Z,21.2
2017-10-31T05:10:31.407Z,21.22
2017-10-31T05:11:40.434Z,21.27
2017-10-31T05:12:49.793Z,21.21
2017-10-31T05:13:58.826Z,21.21
2017-10-31T05:15:07.854Z,21.24
2017-10-31T05:16:17.226Z,21.21
2017-10-31T05:17:26.590Z,21.24
2017-10-31T05:18:35.619Z,21.2
2017-10-31T05:19:44.647Z,21.21
2017-10-31T05:20:54.676Z,21.25
2017-10-31T05:22:03.378Z,21.21
2017-10-31T05:23:12.404Z,21.24
2017-10-31T05:24:21.444Z,21.21
2017-10-31T05:25:30.472Z,21.2
2017-10-31T05:26:39.497Z,21.25
2017-10-31T05:27:49.528Z,21.25
2017-10-31T05:28:58.901Z,21.27
2017-10-31T05:30:08.602Z,21.21
2017-10-31T05:31:17.963Z,21.27
2017-10-31T05:32:26.993Z,21.32
2017-10-31T05:33:36.025Z,21.24
2017-10-31T05:34:45.057Z,21.25
2017-10-31T05:35:53.755Z,21.22
2017-10-31T05:37:03.114Z,21.32
2017-10-31T05:38:12.471Z,21.33
2017-10-31T05:39:21.833Z,21.24
2017-10-31T05:40:30.861Z,21.21
2017-10-31T05:41:39.898Z,21.27
2017-10-31T05:42:48.928Z,21.25
2017-10-31T05:43:57.953Z,21.29
2017-10-31T05:45:06.650Z,21.36
2017-10-31T05:46:16.011Z,21.29
2017-10-31T05:47:25.038Z,21.33
2017-10-31T05:48:33.732Z,21.29
2017-10-31T05:49:43.765Z,21.33
2017-10-31T05:50:52.462Z,21.33
2017-10-31T05:52:02.168Z,21.29
2017-10-31T05:53:10.863Z,21.32
2017-10-31T05:54:19.891Z,21.33
2017-10-31T05:55:28.588Z,21.36
2017-10-31T05:56:37.308Z,21.36
2017-10-31T05:57:46.672Z,21.4
2017-10-31T05:58:55.700Z,21.33
2017-10-31T06:00:05.059Z,21.37
2017-10-31T06:01:13.758Z,21.39
2017-10-31T06:02:23.120Z,21.37
2017-10-31T06:03:32.816Z,21.37
2017-10-31T06:04:41.511Z,21.4
2017-10-31T06:05:50.550Z,21.4
2017-10-31T06:06:59.594Z,21.36
2017-10-31T06:08:08.624Z,21.46
2017-10-31T06:09:17.654Z,21.48
2017-10-31T06:10:26.355Z,21.51
2017-10-31T06:11:35.049Z,21.46
2017-10-31T06:12:44.415Z,21.48
2017-10-31T06:13:53.113Z,21.46
2017-10-31T06:15:01.809Z,21.43
2017-10-31T06:16:10.845Z,21.5
2017-10-31T06:17:20.227Z,21.52
2017-10-31T06:18:29.922Z,21.54
2017-10-31T06:19:38.959Z,21.51
2017-10-31T06:20:48.662Z,21.52
2017-10-31T06:21:57.690Z,21.52
2017-10-31T06:23:07.384Z,21.52
2017-10-31T06:24:16.081Z,21.52
2017-10-31T06:25:25.444Z,21.57
2017-10-31T06:26:34.473Z,21.54
2017-10-31T06:27:44.503Z,21.58
2017-10-31T06:28:53.864Z,21.57
2017-10-31T06:30:03.579Z,21.6
2017-10-31T06:31:12.276Z,21.57
2017-10-31T06:32:21.648Z,21.58
2017-10-31T06:33:30.675Z,21.61
2017-10-31T06:34:39.706Z,21.61
2017-10-31T06:35:48.409Z,21.6
2017-10-31T06:36:57.442Z,21.6
2017-10-31T06:38:06.473Z,21.54
2017-10-31T06:39:15.504Z,21.6
2017-10-31T06:40:24.535Z,21.61
2017-10-31T06:41:34.225Z,21.6
2017-10-31T06:42:43.277Z,21.58
2017-10-31T06:43:52.303Z,21.62
2017-10-31T06:45:01.340Z,21.64
2017-10-31T06:46:10.699Z,21.7
2017-10-31T06:47:19.394Z,21.7
2017-10-31T06:48:28.092Z,21.73
2017-10-31T06:49:37.123Z,21.76
2017-10-31T06:50:45.819Z,21.73
2017-10-31T06:51:55.184Z,21.72
2017-10-31T06:53:04.874Z,21.76
2017-10-31T06:54:13.907Z,21.7
2017-10-31T06:55:22.936Z,21.69
2017-10-31T06:56:32.302Z,21.72
2017-10-31T06:57:41.661Z,21.75
2017-10-31T06:58:50.357Z,21.69
2017-10-31T07:00:00.054Z,21.67
2017-10-31T07:01:09.084Z,21.75
2017-10-31T07:02:17.782Z,21.69
2017-10-31T07:03:26.828Z,21.7
2017-10-31T07:04:36.205Z,21.72
2017-10-31T07:05:45.234Z,21.75
2017-10-31T07:06:53.938Z,21.79
2017-10-31T07:08:02.628Z,21.7
2017-10-31T07:09:11.327Z,21.8
2017-10-31T07:10:20.024Z,21.82
2017-10-31T07:11:29.386Z,21.79
2017-10-31T07:12:38.425Z,21.8
2017-10-31T07:13:47.455Z,21.82
2017-10-31T07:14:57.166Z,21.91
2017-10-31T07:16:06.193Z,21.8
2017-10-31T07:17:15.896Z,21.85
2017-10-31T07:18:25.921Z,21.93
2017-10-31T07:19:35.314Z,21.82
2017-10-31T07:20:45.017Z,21.93
2017-10-31T07:21:54.375Z,21.93
2017-10-31T07:23:03.403Z,21.83
2017-10-31T07:24:12.098Z,21.79
2017-10-31T07:25:21.461Z,21.89
2017-10-31T07:26:30.486Z,21.91
2017-10-31T07:27:39.852Z,21.88
2017-10-31T07:28:49.209Z,21.88
2017-10-31T07:29:58.237Z,21.93
2017-10-31T07:31:07.265Z,21.89
2017-10-31T07:32:16.297Z,21.91
2017-10-31T07:33:25.324Z,21.92
2017-10-31T07:34:34.025Z,21.92
2017-10-31T07:35:43.054Z,21.96
2017-10-31T07:36:52.416Z,21.89
2017-10-31T07:38:01.447Z,21.98
2017-10-31T07:39:11.148Z,21.92
2017-10-31T07:40:20.177Z,21.92
2017-10-31T07:41:28.871Z,22.02
2017-10-31T07:42:38.230Z,21.95
2017-10-31T07:43:47.254Z,21.93
2017-10-31T07:44:56.285Z,21.99
2017-10-31T07:46:04.983Z,22
2017-10-31T07:47:13.684Z,21.93
2017-10-31T07:48:22.712Z,21.99
2017-10-31T07:49:31.410Z,22.02
2017-10-31T07:50:40.439Z,22
2017-10-31T07:51:49.797Z,22.04
2017-10-31T07:52:58.492Z,21.98
2017-10-31T07:54:07.520Z,22.07
2017-10-31T07:55:17.214Z,22.06
2017-10-31T07:56:26.242Z,22.02
2017-10-31T07:57:35.598Z,22.02
2017-10-31T07:58:44.626Z,22.04
2017-10-31T07:59:53.985Z,22.11
2017-10-31T08:01:02.684Z,22.04
2017-10-31T08:02:12.053Z,22.18
2017-10-31T08:03:21.086Z,22.04
2017-10-31T08:04:29.781Z,22.14
2017-10-31T08:05:38.475Z,22.22
2017-10-31T08:06:47.513Z,22.14
2017-10-31T08:07:56.879Z,22.14
2017-10-31T08:09:05.910Z,22.15
2017-10-31T08:10:14.606Z,22.11
2017-10-31T08:11:23.974Z,22.22
2017-10-31T08:12:33.015Z,22.22
2017-10-31T08:13:41.715Z,22.13
2017-10-31T08:14:51.077Z,22.2
2017-10-31T08:15:59.767Z,22.17
2017-10-31T08:17:08.464Z,22.22
2017-10-31T08:18:17.827Z,22.22
2017-10-31T08:19:27.531Z,22.18
2017-10-31T08:20:36.570Z,22.18
2017-10-31T08:21:45.260Z,22.18
2017-10-31T08:22:53.960Z,22.25
2017-10-31T08:24:02.995Z,22.29
2017-10-31T08:25:12.352Z,22.28
2017-10-31T08:26:21.046Z,22.23
2017-10-31T08:27:30.080Z,22.28
2017-10-31T08:28:38.778Z,22.36
2017-10-31T08:29:47.803Z,22.28
2017-10-31T08:30:57.168Z,22.33
2017-10-31T08:32:06.539Z,22.32
2017-10-31T08:33:15.239Z,22.36
2017-10-31T08:34:24.933Z,22.36
2017-10-31T08:35:34.298Z,22.33
2017-10-31T08:36:43.655Z,22.3
2017-10-31T08:37:52.685Z,22.38
2017-10-31T08:39:01.380Z,22.39
2017-10-31T08:40:10.743Z,22.35
2017-10-31T08:41:19.437Z,22.41
2017-10-31T08:42:28.137Z,22.39
2017-10-31T08:43:37.161Z,22.36
2017-10-31T08:44:46.203Z,22.28
2017-10-31T08:45:55.236Z,22.35
2017-10-31T08:47:04.603Z,22.29
2017-10-31T08:48:13.304Z,22.41
2017-10-31T08:49:22.334Z,22.41
2017-10-31T08:50:31.364Z,22.33
2017-10-31T08:51:40.723Z,22.36
2017-10-31T08:52:49.761Z,22.39
2017-10-31T08:53:58.792Z,22.39
2017-10-31T08:55:07.820Z,22.36
2017-10-31T08:56:17.512Z,22.38
2017-10-31T08:57:26.541Z,22.41
2017-10-31T08:58:36.566Z,22.41
2017-10-31T08:59:45.929Z,22.36
2017-10-31T09:00:54.963Z,22.39
2017-10-31T09:02:03.988Z,22.32
2017-10-31T09:03:12.681Z,22.39
2017-10-31T09:04:21.376Z,22.38
2017-10-31T09:05:30.736Z,22.45
2017-10-31T09:06:40.116Z,22.41
2017-10-31T09:07:48.793Z,22.5
2017-10-31T09:08:57.823Z,22.48
2017-10-31T09:10:06.522Z,22.47
2017-10-31T09:11:15.552Z,22.48
2017-10-31T09:12:24.911Z,22.45
2017-10-31T09:13:33.937Z,22.43
2017-10-31T09:14:42.962Z,22.41
2017-10-31T09:15:52.323Z,22.41
2017-10-31T09:17:01.024Z,22.38
2017-10-31T09:18:09.720Z,22.39
2017-10-31T09:19:18.747Z,22.41
2017-10-31T09:20:28.450Z,22.39
2017-10-31T09:21:37.482Z,22.38
2017-10-31T09:22:46.837Z,22.47
2017-10-31T09:23:55.872Z,22.36
2017-10-31T09:25:06.253Z,22.32
2017-10-31T09:26:15.622Z,22.36
2017-10-31T09:27:24.655Z,22.43
2017-10-31T09:28:34.020Z,22.39
2017-10-31T09:29:43.055Z,22.43
2017-10-31T09:30:51.755Z,22.36
2017-10-31T09:32:00.792Z,22.48
2017-10-31T09:33:10.159Z,22.41
2017-10-31T09:34:19.523Z,22.38
2017-10-31T09:35:29.554Z,22.38
2017-10-31T09:36:38.917Z,22.36
2017-10-31T09:37:47.947Z,22.47
2017-10-31T09:38:57.309Z,22.43
2017-10-31T09:40:06.000Z,22.48
2017-10-31T09:41:15.027Z,22.53
2017-10-31T09:42:24.389Z,22.53
2017-10-31T09:43:33.750Z,22.54
2017-10-31T09:44:42.779Z,22.54
2017-10-31T09:45:52.147Z,22.5
2017-10-31T09:47:01.510Z,22.57
2017-10-31T09:48:10.897Z,22.55
2017-10-31T09:49:19.930Z,22.54
2017-10-31T09:50:28.631Z,22.53
2017-10-31T09:51:37.662Z,22.57
2017-10-31T09:52:46.695Z,22.54
2017-10-31T09:53:56.061Z,22.54
2017-10-31T09:55:05.093Z,22.57
2017-10-31T09:56:14.793Z,22.57
2017-10-31T09:57:24.170Z,22.55
2017-10-31T09:58:33.872Z,22.55
2017-10-31T09:59:43.236Z,22.51
2017-10-31T10:00:52.267Z,22.57
2017-10-31T10:02:01.964Z,22.53
2017-10-31T10:03:10.998Z,22.51
2017-10-31T10:04:20.043Z,22.53
2017-10-31T10:05:29.416Z,22.55
2017-10-31T10:06:38.112Z,22.55
2017-10-31T10:07:47.804Z,22.53
2017-10-31T10:08:56.503Z,22.47
2017-10-31T10:10:05.868Z,22.53
2017-10-31T10:11:14.895Z,22.53
2017-10-31T10:12:24.592Z,22.55
2017-10-31T10:13:33.288Z,22.5
2017-10-31T10:14:42.647Z,22.57
2017-10-31T10:15:51.683Z,22.5
2017-10-31T10:17:01.413Z,22.55
2017-10-31T10:18:10.442Z,22.54
2017-10-31T10:19:19.481Z,22.5
2017-10-31T10:20:28.843Z,22.54
2017-10-31T10:21:37.865Z,22.47
2017-10-31T10:22:46.900Z,22.53
2017-10-31T10:23:55.591Z,22.57
2017-10-31T10:25:04.620Z,22.51
2017-10-31T10:26:13.653Z,22.5
2017-10-31T10:27:22.691Z,22.53
2017-10-31T10:28:31.387Z,22.48
2017-10-31T10:29:40.754Z,22.54
2017-10-31T10:30:49.451Z,22.55
2017-10-31T10:31:58.819Z,22.54
2017-10-31T10:33:08.177Z,22.53
2017-10-31T10:34:17.206Z,22.66
2017-10-31T10:35:26.569Z,22.62
2017-10-31T10:36:35.268Z,22.68
2017-10-31T10:37:44.958Z,22.68
2017-10-31T10:38:55.005Z,22.69
2017-10-31T10:40:04.374Z,22.68
2017-10-31T10:41:14.076Z,22.75
2017-10-31T10:42:22.774Z,22.69
2017-10-31T10:43:31.471Z,22.78
2017-10-31T10:44:41.175Z,22.78
2017-10-31T10:45:50.547Z,22.65
2017-10-31T10:46:59.258Z,22.66
2017-10-31T10:48:07.944Z,22.75
2017-10-31T10:49:17.310Z,22.72
2017-10-31T10:50:27.011Z,22.7
2017-10-31T10:51:35.709Z,22.69
2017-10-31T10:52:44.745Z,22.76
2017-10-31T10:53:54.111Z,22.7
2017-10-31T10:55:03.823Z,22.7
2017-10-31T10:56:12.518Z,22.7
2017-10-31T10:57:22.548Z,22.7
2017-10-31T10:58:32.247Z,22.7
2017-10-31T10:59:41.940Z,22.66
2017-10-31T11:00:50.634Z,22.68
2017-10-31T11:01:59.999Z,22.66
2017-10-31T11:03:08.698Z,22.66
2017-10-31T11:04:18.059Z,22.6
2017-10-31T11:05:26.752Z,22.63
2017-10-31T11:06:35.786Z,22.59
2017-10-31T11:07:45.146Z,22.62
2017-10-31T11:08:54.182Z,22.57
2017-10-31T11:10:03.544Z,22.63
2017-10-31T11:11:12.905Z,22.57
2017-10-31T11:12:22.266Z,22.57
2017-10-31T11:13:30.960Z,22.55
2017-10-31T11:14:40.320Z,22.59
2017-10-31T11:15:49.685Z,22.54
2017-10-31T11:16:58.722Z,22.54
2017-10-31T11:18:07.750Z,22.6
2017-10-31T11:19:17.448Z,22.6
2017-10-31T11:20:26.476Z,22.63
2017-10-31T11:21:35.843Z,22.65
2017-10-31T11:22:44.869Z,22.66
2017-10-31T11:23:54.566Z,22.69
2017-10-31T11:25:03.600Z,22.62
2017-10-31T11:26:12.963Z,22.65
2017-10-31T11:27:21.991Z,22.69
2017-10-31T11:28:31.360Z,22.69
2017-10-31T11:29:40.725Z,22.73
2017-10-31T11:30:49.424Z,22.69
2017-10-31T11:31:58.457Z,22.7
2017-10-31T11:33:08.485Z,22.7
2017-10-31T11:34:17.852Z,22.7
2017-10-31T11:35:27.214Z,22.66
2017-10-31T11:36:36.911Z,22.68
2017-10-31T11:37:45.607Z,22.75
2017-10-31T11:38:55.633Z,22.65
2017-10-31T11:40:04.662Z,22.68
2017-10-31T11:41:14.027Z,22.68
2017-10-31T11:42:22.715Z,22.83
2017-10-31T11:43:33.086Z,22.69
2017-10-31T11:44:42.462Z,22.76
2017-10-31T11:45:51.829Z,22.76
2017-10-31T11:47:00.866Z,22.68
2017-10-31T11:48:09.901Z,22.8
2017-10-31T11:49:18.928Z,22.8
2017-10-31T11:50:27.624Z,22.83
2017-10-31T11:51:36.654Z,22.81
2017-10-31T11:52:46.020Z,22.72
2017-10-31T11:53:55.061Z,22.81
2017-10-31T11:55:04.422Z,22.8
2017-10-31T11:56:13.446Z,22.8
2017-10-31T11:57:22.146Z,22.83
2017-10-31T11:58:30.844Z,22.84
2017-10-31T11:59:39.871Z,22.84
2017-10-31T12:00:49.572Z,22.96
2017-10-31T12:01:58.604Z,22.94
2017-10-31T12:03:07.975Z,22.91
2017-10-31T12:04:17.337Z,22.96
2017-10-31T12:05:26.036Z,22.98
2017-10-31T12:06:35.545Z,22.84
2017-10-31T12:07:44.576Z,22.85
2017-10-31T12:08:53.602Z,22.93
2017-10-31T12:10:02.964Z,22.8
2017-10-31T12:11:12.003Z,22.78
2017-10-31T12:12:20.701Z,22.83
2017-10-31T12:13:29.726Z,22.83
2017-10-31T12:14:38.756Z,22.81
2017-10-31T12:15:48.450Z,22.7
2017-10-31T12:16:58.153Z,22.68
2017-10-31T12:18:08.189Z,22.7
2017-10-31T12:19:16.883Z,22.69
2017-10-31T12:20:25.581Z,22.7
2017-10-31T12:21:34.609Z,22.75
2017-10-31T12:22:43.303Z,22.76
2017-10-31T12:23:52.014Z,22.76
2017-10-31T12:25:01.027Z,22.69
2017-10-31T12:26:10.387Z,22.75
2017-10-31T12:27:19.085Z,22.7
2017-10-31T12:28:27.783Z,22.73
2017-10-31T12:29:37.524Z,22.66
2017-10-31T12:30:46.590Z,22.68
2017-10-31T12:31:55.292Z,22.7
2017-10-31T12:33:04.658Z,22.76
2017-10-31T12:34:13.685Z,22.68
2017-10-31T12:35:22.720Z,22.76
2017-10-31T12:36:32.126Z,22.83
2017-10-31T12:37:41.487Z,22.81
2017-10-31T12:38:50.183Z,22.78
2017-10-31T12:39:59.220Z,22.87
2017-10-31T12:41:08.572Z,22.88
2017-10-31T12:42:18.263Z,22.88
2017-10-31T12:43:27.292Z,22.87
2017-10-31T12:44:36.326Z,22.76
2017-10-31T12:45:45.020Z,22.78
2017-10-31T12:46:53.713Z,22.87
2017-10-31T12:48:02.416Z,22.84
2017-10-31T12:49:11.447Z,22.87
2017-10-31T12:50:20.475Z,22.83
2017-10-31T12:51:29.512Z,22.87
2017-10-31T12:52:38.871Z,22.87
2017-10-31T12:53:47.567Z,22.98
2017-10-31T12:54:57.265Z,22.85
2017-10-31T12:56:06.294Z,22.88
2017-10-31T12:57:15.326Z,22.91
2017-10-31T12:58:24.355Z,22.84
2017-10-31T12:59:33.721Z,22.85
2017-10-31T13:00:42.419Z,22.83
2017-10-31T13:01:51.784Z,22.78
2017-10-31T13:03:01.147Z,22.69
2017-10-31T13:04:09.844Z,22.7
2017-10-31T13:05:19.220Z,22.76
2017-10-31T13:06:28.254Z,22.75
2017-10-31T13:07:38.282Z,22.73
2017-10-31T13:08:46.981Z,22.68
2017-10-31T13:09:55.682Z,22.75
2017-10-31T13:11:04.714Z,22.72
2017-10-31T13:12:13.745Z,22.83
2017-10-31T13:13:22.777Z,22.66
2017-10-31T13:14:32.476Z,22.69
2017-10-31T13:15:41.841Z,22.7
2017-10-31T13:16:50.873Z,22.69
2017-10-31T13:18:00.573Z,22.69
2017-10-31T13:19:09.266Z,22.76
2017-10-31T13:20:18.637Z,22.73
2017-10-31T13:21:27.660Z,22.8
2017-10-31T13:22:36.356Z,22.83
2017-10-31T13:23:45.717Z,22.83
2017-10-31T13:24:55.078Z,22.72
2017-10-31T13:26:04.446Z,22.66
2017-10-31T13:27:13.483Z,22.69
2017-10-31T13:28:22.511Z,22.72
2017-10-31T13:29:31.546Z,22.78
2017-10-31T13:30:40.571Z,22.7
2017-10-31T13:31:50.265Z,22.75
2017-10-31T13:33:00.304Z,22.63
2017-10-31T13:34:09.340Z,22.65
2017-10-31T13:35:18.705Z,22.69
2017-10-31T13:36:27.405Z,22.76
2017-10-31T13:37:36.432Z,22.68
2017-10-31T13:38:45.457Z,22.68
2017-10-31T13:39:54.822Z,22.73
2017-10-31T13:41:04.182Z,22.63
2017-10-31T13:42:13.209Z,22.73
2017-10-31T13:43:22.239Z,22.75
2017-10-31T13:44:31.272Z,22.69
2017-10-31T13:45:40.304Z,22.69
2017-10-31T13:46:49.669Z,22.69
2017-10-31T13:47:59.027Z,22.75
2017-10-31T13:49:08.056Z,22.72
2017-10-31T13:50:17.101Z,22.73
2017-10-31T13:51:25.810Z,22.7
2017-10-31T13:52:35.504Z,22.66
2017-10-31T13:53:44.537Z,22.73
2017-10-31T13:54:53.560Z,22.68
2017-10-31T13:56:02.590Z,22.65
2017-10-31T13:57:11.627Z,22.7
2017-10-31T13:58:20.653Z,22.73
2017-10-31T13:59:29.354Z,22.66
2017-10-31T14:00:38.716Z,22.73
2017-10-31T14:01:48.076Z,22.66
2017-10-31T14:02:57.115Z,22.75
2017-10-31T14:04:06.144Z,22.75
2017-10-31T14:05:14.847Z,22.73
2017-10-31T14:06:24.549Z,22.63
2017-10-31T14:07:33.252Z,22.68
2017-10-31T14:08:41.951Z,22.72
2017-10-31T14:09:51.311Z,22.69
2017-10-31T14:11:00.340Z,22.78
2017-10-31T14:12:09.370Z,22.65
2017-10-31T14:13:18.741Z,22.78
2017-10-31T14:14:28.433Z,22.78
2017-10-31T14:15:37.132Z,22.73
2017-10-31T14:16:46.173Z,22.78
2017-10-31T14:17:54.863Z,22.7
2017-10-31T14:19:03.899Z,22.73
2017-10-31T14:20:12.932Z,22.7
2017-10-31T14:21:21.970Z,22.73
2017-10-31T14:22:31.001Z,22.7
2017-10-31T14:23:39.695Z,22.68
2017-10-31T14:24:48.389Z,22.7
2017-10-31T14:25:57.788Z,22.72
2017-10-31T14:27:06.809Z,22.7
2017-10-31T14:28:15.508Z,22.66
2017-10-31T14:29:24.203Z,22.69
2017-10-31T14:30:33.238Z,22.66
2017-10-31T14:31:42.268Z,22.66
2017-10-31T14:32:50.966Z,22.62
2017-10-31T14:34:00.331Z,22.65
2017-10-31T14:35:09.030Z,22.68
2017-10-31T14:36:18.394Z,22.63
2017-10-31T14:37:27.425Z,22.62
2017-10-31T14:38:36.801Z,22.72
2017-10-31T14:39:45.829Z,22.65
2017-10-31T14:40:54.535Z,22.66
2017-10-31T14:42:03.227Z,22.68
2017-10-31T14:43:12.934Z,22.66
2017-10-31T14:44:21.970Z,22.65
2017-10-31T14:45:31.666Z,22.63
2017-10-31T14:46:40.700Z,22.68
2017-10-31T14:47:49.396Z,22.65
2017-10-31T14:48:58.092Z,22.7
2017-10-31T14:50:07.130Z,22.65
2017-10-31T14:51:16.511Z,22.65
2017-10-31T14:52:25.200Z,22.62
2017-10-31T14:53:34.232Z,22.62
2017-10-31T14:54:43.942Z,22.6